createdAt,value
2023-03-19T00:01:39.708Z,6.53
2023-03-19T00:04:13.549Z,6.48
2023-03-19T00:06:48.192Z,6.41
2023-03-19T00:09:23.261Z,6.34
2023-03-19T00:11:57.284Z,6.28
2023-03-19T00:14:31.358Z,6.23
2023-03-19T00:17:04.795Z,6.18
2023-03-19T00:19:38.172Z,6.12
2023-03-19T00:22:12.151Z,6.07
2023-03-19T00:24:46.230Z,6.01
2023-03-19T00:27:20.245Z,5.96
2023-03-19T00:29:54.186Z,5.92
2023-03-19T00:32:28.814Z,5.85
2023-03-19T00:35:02.310Z,5.82
2023-03-19T00:37:36.576Z,5.78
2023-03-19T00:40:16.998Z,5.73
2023-03-19T00:42:51.608Z,5.69
2023-03-19T00:45:25.851Z,5.65
2023-03-19T00:47:59.228Z,5.62
2023-03-19T00:50:33.427Z,5.58
2023-03-19T00:53:06.392Z,5.57
2023-03-19T00:55:40.527Z,5.54
2023-03-19T00:58:14.088Z,5.52
2023-03-19T01:00:48.715Z,5.50
2023-03-19T01:03:22.648Z,5.48
2023-03-19T01:05:56.449Z,5.49
2023-03-19T01:08:30.051Z,5.46
2023-03-19T01:11:12.002Z,5.45
2023-03-19T01:13:46.833Z,5.45
2023-03-19T01:16:20.878Z,5.43
2023-03-19T01:18:54.485Z,5.43
2023-03-19T01:21:31.142Z,5.43
2023-03-19T01:24:05.028Z,5.44
2023-03-19T01:26:39.065Z,5.43
2023-03-19T01:29:28.004Z,5.42
2023-03-19T01:32:03.576Z,5.43
2023-03-19T01:34:45.365Z,5.42
2023-03-19T01:37:23.277Z,5.41
2023-03-19T01:39:59.116Z,5.40
2023-03-19T01:42:32.516Z,5.40
2023-03-19T01:45:39.445Z,5.38
2023-03-19T01:48:39.347Z,5.35
2023-03-19T01:51:18.581Z,5.31
2023-03-19T01:54:14.869Z,5.27
2023-03-19T01:57:04.747Z,5.23
2023-03-19T02:00:01.870Z,5.19
2023-03-19T02:02:36.615Z,5.12
2023-03-19T02:05:26.093Z,5.08
2023-03-19T02:08:07.214Z,5.04
2023-03-19T02:10:42.482Z,5.00
2023-03-19T02:13:16.857Z,4.95
2023-03-19T02:15:51.260Z,4.89
2023-03-19T02:18:26.077Z,4.83
2023-03-19T02:21:07.109Z,4.79
2023-03-19T02:23:47.095Z,4.73
2023-03-19T02:26:24.943Z,4.68
2023-03-19T02:29:06.398Z,4.62
2023-03-19T02:31:41.686Z,4.57
2023-03-19T02:34:37.977Z,4.52
2023-03-19T02:37:17.821Z,4.46
2023-03-19T02:39:57.178Z,4.38
2023-03-19T02:42:31.934Z,4.31
2023-03-19T02:45:06.231Z,4.26
2023-03-19T02:47:40.141Z,4.20
2023-03-19T02:50:14.859Z,4.17
2023-03-19T02:52:48.984Z,4.12
2023-03-19T02:55:23.766Z,4.07
2023-03-19T02:57:57.892Z,4.00
2023-03-19T03:00:33.579Z,3.95
2023-03-19T03:03:09.309Z,3.91
2023-03-19T03:05:42.451Z,3.86
2023-03-19T03:08:15.942Z,3.80
2023-03-19T03:10:49.887Z,3.79
2023-03-19T03:13:23.308Z,3.73
2023-03-19T03:15:57.158Z,3.68
2023-03-19T03:18:30.867Z,3.64
2023-03-19T03:21:07.724Z,3.59
2023-03-19T03:23:41.418Z,3.56
2023-03-19T03:26:16.352Z,3.51
2023-03-19T03:28:50.393Z,3.46
2023-03-19T03:31:25.020Z,3.42
2023-03-19T03:33:59.403Z,3.35
2023-03-19T03:36:34.061Z,3.31
2023-03-19T03:39:07.630Z,3.26
2023-03-19T03:41:41.857Z,3.22
2023-03-19T03:44:15.912Z,3.16
2023-03-19T03:46:51.094Z,3.15
2023-03-19T03:49:26.023Z,3.09
2023-03-19T03:51:59.799Z,3.05
2023-03-19T03:54:35.607Z,3.01
2023-03-19T03:57:10.513Z,2.99
2023-03-19T03:59:44.853Z,2.96
2023-03-19T04:02:19.252Z,2.93
2023-03-19T04:04:53.247Z,2.93
2023-03-19T04:07:28.281Z,2.89
2023-03-19T04:10:03.925Z,2.85
2023-03-19T04:12:38.283Z,2.84
2023-03-19T04:15:15.687Z,2.85
2023-03-19T04:17:51.749Z,2.84
2023-03-19T04:20:25.707Z,2.81
2023-03-19T04:22:59.508Z,2.80
2023-03-19T04:25:32.825Z,2.78
2023-03-19T04:28:07.081Z,2.76
2023-03-19T04:30:41.659Z,2.74
2023-03-19T04:33:16.010Z,2.71
2023-03-19T04:35:50.061Z,2.67
2023-03-19T04:38:23.289Z,2.65
2023-03-19T04:40:57.731Z,2.60
2023-03-19T04:43:31.979Z,2.56
2023-03-19T04:46:07.075Z,2.55
2023-03-19T04:48:42.047Z,2.52
2023-03-19T04:51:17.283Z,2.52
2023-03-19T04:53:51.334Z,2.51
2023-03-19T04:56:24.898Z,2.49
2023-03-19T04:58:59.518Z,2.46
2023-03-19T05:01:33.683Z,2.39
2023-03-19T05:04:11.541Z,2.35
2023-03-19T05:06:44.826Z,2.33
2023-03-19T05:09:20.255Z,2.31
2023-03-19T05:11:53.861Z,2.31
2023-03-19T05:14:29.097Z,2.30
2023-03-19T09:20:41.341Z,12.93
2023-03-19T09:23:14.772Z,12.99
2023-03-19T09:25:48.861Z,13.01
2023-03-19T09:28:24.617Z,13.08
2023-03-19T09:30:58.344Z,13.15
2023-03-19T09:33:31.409Z,13.23
2023-03-19T09:36:06.149Z,13.39
2023-03-19T09:38:39.655Z,13.40
2023-03-19T09:41:22.549Z,13.47
2023-03-19T09:44:07.539Z,13.57
2023-03-19T09:46:46.682Z,13.72
2023-03-19T09:49:27.699Z,13.81
2023-03-19T09:52:09.543Z,13.84
2023-03-19T09:54:48.459Z,13.93
2023-03-19T09:57:22.861Z,14.02
2023-03-19T09:59:56.145Z,14.12
2023-03-19T10:02:44.515Z,14.19
2023-03-19T10:05:28.937Z,14.25
2023-03-19T10:08:28.412Z,14.32
2023-03-19T10:11:19.048Z,14.40
2023-03-19T10:14:01.224Z,14.48
2023-03-19T10:16:33.029Z,14.53
2023-03-19T10:19:08.088Z,14.59
2023-03-19T10:21:45.951Z,14.68
2023-03-19T10:24:23.943Z,14.79
2023-03-19T10:27:03.061Z,14.91
2023-03-19T10:29:38.013Z,15.05
2023-03-19T10:32:19.113Z,15.15
2023-03-19T10:34:54.101Z,15.22
2023-03-19T10:37:29.145Z,15.33
2023-03-19T10:40:04.051Z,15.42
2023-03-19T10:42:48.939Z,15.47
2023-03-19T10:45:30.646Z,15.57
2023-03-19T10:48:06.322Z,15.65
2023-03-19T10:50:48.003Z,15.73
2023-03-19T10:53:33.370Z,15.81
2023-03-19T10:56:18.103Z,15.83
2023-03-19T10:59:05.903Z,15.94
2023-03-19T11:01:42.041Z,16.04
2023-03-19T11:04:18.712Z,16.13
2023-03-19T11:06:54.692Z,16.23
2023-03-19T11:09:35.383Z,16.30
2023-03-19T11:12:20.905Z,16.31
2023-03-19T11:14:55.775Z,16.36
2023-03-19T11:17:38.154Z,16.41
2023-03-19T11:20:28.675Z,16.45
2023-03-19T11:23:04.353Z,16.53
2023-03-19T11:25:41.705Z,16.62
2023-03-19T11:28:19.167Z,16.69
2023-03-19T11:31:03.988Z,16.71
2023-03-19T11:33:57.734Z,16.80
2023-03-19T11:36:36.383Z,16.86
2023-03-19T11:39:27.795Z,16.94
2023-03-19T11:42:24.124Z,16.98
2023-03-19T11:45:09.096Z,16.99
2023-03-19T11:47:51.426Z,16.97
2023-03-19T11:50:31.869Z,17.04
2023-03-19T11:53:23.094Z,17.10
2023-03-19T11:56:04.144Z,17.14
2023-03-19T11:59:10.920Z,17.19
2023-03-19T12:02:03.436Z,17.22
2023-03-19T12:05:02.466Z,17.28
2023-03-19T12:07:46.020Z,17.34
2023-03-19T12:10:39.869Z,17.39
2023-03-19T12:13:28.422Z,17.40
2023-03-19T12:16:11.517Z,17.43
2023-03-19T12:19:14.804Z,17.48
2023-03-19T12:21:58.974Z,17.53
2023-03-19T12:24:43.440Z,17.54
2023-03-19T12:27:30.764Z,17.58
2023-03-19T12:30:14.081Z,17.63
2023-03-19T12:33:05.498Z,17.70
2023-03-19T12:35:41.078Z,17.70
2023-03-19T12:38:19.534Z,17.74
2023-03-19T12:40:58.920Z,17.76
2023-03-19T12:43:38.438Z,17.73
2023-03-19T12:46:17.938Z,17.70
2023-03-19T12:48:55.927Z,17.67
2023-03-19T12:51:34.440Z,17.68
2023-03-19T12:54:13.309Z,17.63
2023-03-19T12:56:55.809Z,17.60
2023-03-19T12:59:36.697Z,17.60
2023-03-19T13:02:20.260Z,17.61
2023-03-19T13:04:58.187Z,17.63
2023-03-19T13:07:37.974Z,17.63
2023-03-19T13:10:16.906Z,17.68
2023-03-19T13:12:51.904Z,17.66
2023-03-19T13:15:32.907Z,17.68
2023-03-19T13:18:31.514Z,17.71
2023-03-19T13:21:19.975Z,17.71
2023-03-19T13:24:04.372Z,17.77
2023-03-19T13:26:40.072Z,17.76
2023-03-19T13:29:21.608Z,17.76
2023-03-19T13:32:01.637Z,17.74
2023-03-19T13:34:37.081Z,17.72
2023-03-19T13:37:15.200Z,17.72
2023-03-19T13:39:50.145Z,17.70
2023-03-19T13:42:43.929Z,17.69
2023-03-19T13:45:36.001Z,17.68
2023-03-19T13:48:39.345Z,17.68
2023-03-19T13:51:30.082Z,17.67
2023-03-19T13:54:18.411Z,17.67
2023-03-19T13:57:18.902Z,17.64
2023-03-19T13:59:53.464Z,17.64
2023-03-19T14:02:49.104Z,17.64
2023-03-19T14:05:23.899Z,17.67
2023-03-19T14:07:59.014Z,17.67
2023-03-19T14:10:33.306Z,17.68
2023-03-19T14:13:19.547Z,17.70
2023-03-19T14:15:54.760Z,17.70
2023-03-19T14:18:30.984Z,17.72
2023-03-19T14:21:08.860Z,17.71
2023-03-19T14:23:57.793Z,17.67
2023-03-19T14:26:32.535Z,17.66
2023-03-19T14:29:08.650Z,17.63
2023-03-19T14:31:49.017Z,17.58
2023-03-19T14:34:29.171Z,17.54
2023-03-19T14:37:10.080Z,17.51
2023-03-19T14:39:45.356Z,17.48
2023-03-19T14:42:24.003Z,17.45
2023-03-19T14:45:30.878Z,17.41
2023-03-19T14:48:41.278Z,17.35
2023-03-19T14:51:32.092Z,17.24
2023-03-19T14:54:14.225Z,17.14
2023-03-19T14:56:48.875Z,17.03
2023-03-19T14:59:22.190Z,16.96
2023-03-19T15:01:56.961Z,16.92
2023-03-19T15:04:30.567Z,16.84
2023-03-19T15:07:04.699Z,16.80
2023-03-19T15:09:38.349Z,16.76
2023-03-19T15:12:40.847Z,16.71
2023-03-19T15:15:38.299Z,16.63
2023-03-19T15:18:14.841Z,16.52
2023-03-19T18:35:46.514Z,10.56
2023-03-19T18:41:31.436Z,10.46
2023-03-19T18:44:12.447Z,10.39
2023-03-19T18:46:45.575Z,10.33
2023-03-19T18:49:25.798Z,10.27
2023-03-19T18:52:03.056Z,10.21
2023-03-19T18:54:37.279Z,10.13
2023-03-19T18:57:14.942Z,10.07
2023-03-19T18:59:47.914Z,9.98
2023-03-19T19:02:31.917Z,9.92
2023-03-19T19:05:07.419Z,9.84
2023-03-19T19:07:40.181Z,9.76
2023-03-19T19:10:16.061Z,9.68
2023-03-19T19:12:52.598Z,9.60
2023-03-19T19:15:30.067Z,9.53
2023-03-19T19:18:07.540Z,9.45
2023-03-19T19:20:40.991Z,9.37
2023-03-19T19:23:14.290Z,9.30
2023-03-19T19:25:55.300Z,9.22
2023-03-19T19:28:33.092Z,9.13
2023-03-19T19:31:06.585Z,9.05
2023-03-19T19:33:39.793Z,8.97
2023-03-19T19:36:13.472Z,8.89
2023-03-19T19:38:46.449Z,8.80
2023-03-19T19:41:23.273Z,8.72
2023-03-19T19:44:01.773Z,8.62
2023-03-19T19:46:35.476Z,8.55
2023-03-19T19:49:12.006Z,8.44
2023-03-19T19:51:45.967Z,8.33
2023-03-19T19:54:18.847Z,8.22
2023-03-19T19:56:53.668Z,8.16
2023-03-19T19:59:28.228Z,8.10
2023-03-19T20:02:02.627Z,8.05
2023-03-19T20:04:35.684Z,7.99
2023-03-19T20:07:08.434Z,7.93
2023-03-19T20:09:42.072Z,7.87
2023-03-19T20:12:22.371Z,7.81
2023-03-19T20:14:56.033Z,7.74
2023-03-19T20:17:29.593Z,7.69
2023-03-19T20:20:02.374Z,7.63
2023-03-19T20:22:35.539Z,7.57
2023-03-19T20:25:10.340Z,7.52
2023-03-19T20:27:44.094Z,7.45
2023-03-19T20:30:30.680Z,7.38
2023-03-19T20:33:07.898Z,7.30
2023-03-19T20:35:43.153Z,7.25
2023-03-19T20:38:18.874Z,7.18
2023-03-19T20:40:55.701Z,7.14
2023-03-19T20:43:31.662Z,7.09
2023-03-19T20:46:08.188Z,7.01
2023-03-19T20:48:41.657Z,6.95
2023-03-19T20:51:20.142Z,6.91
2023-03-19T20:53:53.603Z,6.85
2023-03-19T20:56:27.388Z,6.79
2023-03-19T20:59:03.985Z,6.72
2023-03-19T21:01:37.511Z,6.66
2023-03-19T21:04:19.406Z,6.60
2023-03-19T21:06:54.148Z,6.56
2023-03-19T21:09:28.711Z,6.48
2023-03-19T21:12:01.890Z,6.43
2023-03-19T21:14:35.648Z,6.36
2023-03-19T21:17:08.857Z,6.30
2023-03-19T21:19:43.017Z,6.25
2023-03-19T21:22:22.921Z,6.19
2023-03-19T21:25:01.983Z,6.13
2023-03-19T21:27:37.384Z,6.09
2023-03-19T21:30:17.867Z,6.04
2023-03-19T21:32:53.367Z,5.97
2023-03-19T21:35:28.030Z,5.92
2023-03-19T21:38:01.056Z,5.88
2023-03-19T21:43:16.639Z,5.80
2023-03-19T21:45:54.872Z,5.72
2023-03-19T21:48:33.078Z,5.68
2023-03-19T21:51:08.148Z,5.63
2023-03-19T21:53:41.140Z,5.58
2023-03-19T21:56:23.271Z,5.54
2023-03-19T21:58:57.234Z,5.49
2023-03-19T22:01:30.220Z,5.43
2023-03-19T22:04:03.219Z,5.39
2023-03-19T22:06:36.979Z,5.35
2023-03-19T22:09:09.890Z,5.29
2023-03-19T22:11:46.503Z,5.25
2023-03-19T22:14:27.039Z,5.18
2023-03-19T22:17:01.428Z,5.16
2023-03-19T22:19:34.253Z,5.11
2023-03-19T22:22:07.583Z,5.06
2023-03-19T22:24:40.717Z,5.08
2023-03-19T22:27:19.062Z,4.97
2023-03-19T22:29:52.058Z,4.94
2023-03-19T22:32:25.150Z,4.90
2023-03-19T22:34:58.118Z,4.87
2023-03-19T22:37:32.433Z,4.82
2023-03-19T22:40:05.452Z,4.78
2023-03-19T22:42:42.857Z,4.74
2023-03-19T22:45:31.236Z,4.70
2023-03-19T22:48:04.287Z,4.63
2023-03-19T22:50:37.893Z,4.60
2023-03-19T22:53:23.278Z,4.55
2023-03-19T22:55:57.688Z,4.53
2023-03-19T22:58:31.541Z,4.50
2023-03-19T23:01:04.580Z,4.45
2023-03-19T23:03:37.507Z,4.42
2023-03-19T23:06:29.282Z,4.38
2023-03-19T23:09:02.982Z,4.33
2023-03-19T23:11:39.624Z,4.29
2023-03-19T23:35:02.229Z,4.26
2023-03-19T23:37:36.984Z,4.12
2023-03-19T23:40:12.421Z,4.08
2023-03-19T23:42:52.283Z,4.05
2023-03-19T23:45:35.593Z,4.02
2023-03-19T23:48:15.255Z,3.99
2023-03-19T23:50:48.859Z,3.95
2023-03-19T23:53:24.524Z,3.93
2023-03-19T23:56:00.141Z,3.89
2023-03-19T23:58:40.150Z,3.87
